sensor_id;sensor_type;location;lat;lon;timestamp;pressure;altitude;pressure_sealevel;temperature;humidity
21760;BME280;11041;50.854;20.580;2023-07-28T00:01:53;98026.75;;;14.17;88.44
21760;BME280;11041;50.854;20.580;2023-07-28T00:04:19;98025.66;;;14.22;88.19
21760;BME280;11041;50.854;20.580;2023-07-28T00:06:46;98042.06;;;14.31;88.05
21760;BME280;11041;50.854;20.580;2023-07-28T00:09:12;98043.41;;;14.37;88.04
21760;BME280;11041;50.854;20.580;2023-07-28T00:11:39;98039.91;;;14.40;88.29
21760;BME280;11041;50.854;20.580;2023-07-28T00:14:05;98049.91;;;14.44;88.04
21760;BME280;11041;50.854;20.580;2023-07-28T00:16:32;98037.94;;;14.40;87.57
21760;BME280;11041;50.854;20.580;2023-07-28T00:18:58;98025.47;;;14.46;87.25
21760;BME280;11041;50.854;20.580;2023-07-28T00:21:26;98030.91;;;14.43;86.18
21760;BME280;11041;50.854;20.580;2023-07-28T00:23:52;98022.53;;;14.39;85.38
21760;BME280;11041;50.854;20.580;2023-07-28T00:26:19;98016.50;;;14.34;85.17
21760;BME280;11041;50.854;20.580;2023-07-28T00:28:46;98009.78;;;14.35;85.32
21760;BME280;11041;50.854;20.580;2023-07-28T00:31:12;98020.28;;;14.45;85.22
21760;BME280;11041;50.854;20.580;2023-07-28T00:33:39;98007.03;;;14.35;84.42
21760;BME280;11041;50.854;20.580;2023-07-28T00:36:05;98014.59;;;14.38;85.58
21760;BME280;11041;50.854;20.580;2023-07-28T00:38:32;98001.50;;;14.35;85.45
21760;BME280;11041;50.854;20.580;2023-07-28T00:40:58;97993.56;;;14.33;86.70
21760;BME280;11041;50.854;20.580;2023-07-28T00:43:25;98003.97;;;14.40;86.71
21760;BME280;11041;50.854;20.580;2023-07-28T00:45:53;98004.50;;;14.45;85.99
21760;BME280;11041;50.854;20.580;2023-07-28T00:48:20;97999.78;;;14.46;85.41
21760;BME280;11041;50.854;20.580;2023-07-28T00:50:48;98000.66;;;14.50;84.42
21760;BME280;11041;50.854;20.580;2023-07-28T00:53:16;97992.03;;;14.52;84.08
21760;BME280;11041;50.854;20.580;2023-07-28T00:55:42;98012.34;;;14.59;84.36
21760;BME280;11041;50.854;20.580;2023-07-28T00:58:09;98004.44;;;14.58;85.82
21760;BME280;11041;50.854;20.580;2023-07-28T01:00:36;97991.47;;;14.62;85.68
21760;BME280;11041;50.854;20.580;2023-07-28T01:03:03;97995.94;;;14.66;85.68
21760;BME280;11041;50.854;20.580;2023-07-28T01:09:06;97992.59;;;14.77;82.38
21760;BME280;11041;50.854;20.580;2023-07-28T01:11:35;97990.22;;;14.75;82.13
21760;BME280;11041;50.854;20.580;2023-07-28T01:14:02;97981.13;;;14.75;81.90
21760;BME280;11041;50.854;20.580;2023-07-28T01:16:28;97986.81;;;14.82;81.24
21760;BME280;11041;50.854;20.580;2023-07-28T01:18:55;97993.13;;;14.82;81.32
21760;BME280;11041;50.854;20.580;2023-07-28T01:21:29;97980.38;;;14.78;82.81
21760;BME280;11041;50.854;20.580;2023-07-28T01:26:36;97982.53;;;14.84;82.74
21760;BME280;11041;50.854;20.580;2023-07-28T01:29:04;97973.34;;;14.80;83.78
21760;BME280;11041;50.854;20.580;2023-07-28T01:31:32;97978.94;;;14.84;83.47
21760;BME280;11041;50.854;20.580;2023-07-28T01:33:59;97974.66;;;14.86;83.62
21760;BME280;11041;50.854;20.580;2023-07-28T01:36:25;97986.81;;;14.82;84.67
21760;BME280;11041;50.854;20.580;2023-07-28T01:38:52;97986.44;;;14.83;84.54
21760;BME280;11041;50.854;20.580;2023-07-28T01:41:18;97985.19;;;14.81;84.69
21760;BME280;11041;50.854;20.580;2023-07-28T01:43:45;97982.81;;;14.79;85.36
21760;BME280;11041;50.854;20.580;2023-07-28T01:46:11;97979.22;;;14.79;85.55
21760;BME280;11041;50.854;20.580;2023-07-28T01:48:38;97984.31;;;14.77;85.30
21760;BME280;11041;50.854;20.580;2023-07-28T01:51:04;97974.22;;;14.84;81.39
21760;BME280;11041;50.854;20.580;2023-07-28T01:53:31;97974.28;;;14.88;80.75
21760;BME280;11041;50.854;20.580;2023-07-28T01:55:57;97975.06;;;14.88;81.08
21760;BME280;11041;50.854;20.580;2023-07-28T01:58:24;97980.69;;;14.92;81.37
21760;BME280;11041;50.854;20.580;2023-07-28T02:00:50;97968.91;;;14.95;80.70
21760;BME280;11041;50.854;20.580;2023-07-28T02:03:17;97971.81;;;15.02;79.13
21760;BME280;11041;50.854;20.580;2023-07-28T02:05:43;97974.66;;;15.06;78.92
21760;BME280;11041;50.854;20.580;2023-07-28T02:08:11;97967.59;;;15.08;77.78
21760;BME280;11041;50.854;20.580;2023-07-28T02:10:38;97975.63;;;15.13;78.24
21760;BME280;11041;50.854;20.580;2023-07-28T02:13:04;97969.34;;;15.17;77.61
21760;BME280;11041;50.854;20.580;2023-07-28T02:15:31;97975.75;;;15.21;77.38
21760;BME280;11041;50.854;20.580;2023-07-28T02:17:57;97967.06;;;15.22;76.74
21760;BME280;11041;50.854;20.580;2023-07-28T02:20:23;97972.34;;;15.27;76.70
21760;BME280;11041;50.854;20.580;2023-07-28T02:22:50;97967.16;;;15.26;77.28
21760;BME280;11041;50.854;20.580;2023-07-28T02:25:17;97974.06;;;15.36;76.14
21760;BME280;11041;50.854;20.580;2023-07-28T02:27:43;97965.69;;;15.32;76.22
21760;BME280;11041;50.854;20.580;2023-07-28T02:30:10;97970.06;;;15.33;77.12
21760;BME280;11041;50.854;20.580;2023-07-28T02:32:37;97962.63;;;15.37;76.18
21760;BME280;11041;50.854;20.580;2023-07-28T02:35:04;97976.84;;;15.36;77.18
21760;BME280;11041;50.854;20.580;2023-07-28T02:37:31;97969.19;;;15.29;77.52
21760;BME280;11041;50.854;20.580;2023-07-28T02:39:57;97970.13;;;15.37;76.54
21760;BME280;11041;50.854;20.580;2023-07-28T02:42:24;97974.56;;;15.41;75.80
21760;BME280;11041;50.854;20.580;2023-07-28T02:44:51;97965.81;;;15.39;76.34
21760;BME280;11041;50.854;20.580;2023-07-28T02:47:18;97967.19;;;15.49;75.64
21760;BME280;11041;50.854;20.580;2023-07-28T02:49:44;97976.66;;;15.48;74.85
21760;BME280;11041;50.854;20.580;2023-07-28T02:52:12;97981.09;;;15.52;74.59
21760;BME280;11041;50.854;20.580;2023-07-28T02:54:38;97966.69;;;15.43;75.10
21760;BME280;11041;50.854;20.580;2023-07-28T02:57:05;97983.00;;;15.48;75.14
21760;BME280;11041;50.854;20.580;2023-07-28T02:59:32;97980.66;;;15.50;74.99
21760;BME280;11041;50.854;20.580;2023-07-28T03:01:58;97971.88;;;15.45;74.90
21760;BME280;11041;50.854;20.580;2023-07-28T03:04:25;97972.22;;;15.43;76.14
21760;BME280;11041;50.854;20.580;2023-07-28T03:06:51;97967.19;;;15.49;76.02
21760;BME280;11041;50.854;20.580;2023-07-28T03:09:18;97953.28;;;15.45;76.72
21760;BME280;11041;50.854;20.580;2023-07-28T03:11:44;97970.38;;;15.51;76.59
21760;BME280;11041;50.854;20.580;2023-07-28T03:14:11;97974.13;;;15.59;76.05
21760;BME280;11041;50.854;20.580;2023-07-28T03:16:42;97970.47;;;15.54;77.98
21760;BME280;11041;50.854;20.580;2023-07-28T03:19:08;97966.16;;;15.57;75.58
21760;BME280;11041;50.854;20.580;2023-07-28T03:21:35;97973.69;;;15.57;75.41
21760;BME280;11041;50.854;20.580;2023-07-28T03:24:01;97969.25;;;15.52;75.47
21760;BME280;11041;50.854;20.580;2023-07-28T03:26:28;97970.81;;;15.53;76.01
21760;BME280;11041;50.854;20.580;2023-07-28T03:28:54;97967.72;;;15.54;75.83
21760;BME280;11041;50.854;20.580;2023-07-28T03:31:21;97964.06;;;15.50;76.47
21760;BME280;11041;50.854;20.580;2023-07-28T03:33:48;97961.28;;;15.50;77.58
21760;BME280;11041;50.854;20.580;2023-07-28T03:36:14;97964.50;;;15.52;77.72
21760;BME280;11041;50.854;20.580;2023-07-28T03:38:41;97953.78;;;15.51;77.91
21760;BME280;11041;50.854;20.580;2023-07-28T03:41:08;97947.44;;;15.50;78.50
21760;BME280;11041;50.854;20.580;2023-07-28T03:43:34;97948.69;;;15.53;79.00
21760;BME280;11041;50.854;20.580;2023-07-28T03:46:01;97949.47;;;15.53;79.30
21760;BME280;11041;50.854;20.580;2023-07-28T03:48:28;97937.59;;;15.53;79.34
21760;BME280;11041;50.854;20.580;2023-07-28T03:50:54;97940.81;;;15.55;79.97
21760;BME280;11041;50.854;20.580;2023-07-28T03:53:21;97937.72;;;15.60;79.62
21760;BME280;11041;50.854;20.580;2023-07-28T03:55:47;97936.28;;;15.66;79.68
21760;BME280;11041;50.854;20.580;2023-07-28T03:58:14;97924.75;;;15.64;80.15
21760;BME280;11041;50.854;20.580;2023-07-28T04:00:41;97926.00;;;15.67;80.15
21760;BME280;11041;50.854;20.580;2023-07-28T04:03:07;97940.44;;;15.76;80.60
21760;BME280;11041;50.854;20.580;2023-07-28T04:05:36;97932.13;;;15.76;80.81
21760;BME280;11041;50.854;20.580;2023-07-28T04:08:03;97923.72;;;15.72;81.44
21760;BME280;11041;50.854;20.580;2023-07-28T04:10:30;97926.56;;;15.76;81.85
21760;BME280;11041;50.854;20.580;2023-07-28T04:12:56;97911.53;;;15.77;82.17
21760;BME280;11041;50.854;20.580;2023-07-28T04:15:23;97901.25;;;15.77;81.96
21760;BME280;11041;50.854;20.580;2023-07-28T04:17:49;97902.56;;;15.84;82.38
21760;BME280;11041;50.854;20.580;2023-07-28T04:20:16;97900.69;;;15.91;81.69
21760;BME280;11041;50.854;20.580;2023-07-28T04:22:42;97892.47;;;15.95;81.80
21760;BME280;11041;50.854;20.580;2023-07-28T04:25:09;97890.91;;;15.97;82.00
21760;BME280;11041;50.854;20.580;2023-07-28T04:27:35;97891.03;;;16.05;82.19
21760;BME280;11041;50.854;20.580;2023-07-28T04:30:02;97877.16;;;16.05;82.36
21760;BME280;11041;50.854;20.580;2023-07-28T04:32:29;97886.31;;;16.09;82.85
21760;BME280;11041;50.854;20.580;2023-07-28T04:34:56;97884.03;;;16.14;83.56
21760;BME280;11041;50.854;20.580;2023-07-28T04:37:23;97875.72;;;16.14;84.16
21760;BME280;11041;50.854;20.580;2023-07-28T04:39:49;97875.34;;;16.16;84.19
21760;BME280;11041;50.854;20.580;2023-07-28T04:42:16;97869.44;;;16.17;84.49
21760;BME280;11041;50.854;20.580;2023-07-28T04:44:43;97879.28;;;16.15;85.73
21760;BME280;11041;50.854;20.580;2023-07-28T04:47:10;97866.63;;;16.14;85.36
21760;BME280;11041;50.854;20.580;2023-07-28T04:49:37;97860.22;;;16.10;85.60
21760;BME280;11041;50.854;20.580;2023-07-28T04:52:03;97875.72;;;16.14;86.03
21760;BME280;11041;50.854;20.580;2023-07-28T04:54:30;97871.31;;;16.10;85.99
21760;BME280;11041;50.854;20.580;2023-07-28T04:56:57;97868.91;;;16.08;86.41
21760;BME280;11041;50.854;20.580;2023-07-28T04:59:23;97861.38;;;16.09;86.13
21760;BME280;11041;50.854;20.580;2023-07-28T05:01:50;97859.47;;;16.13;86.03
21760;BME280;11041;50.854;20.580;2023-07-28T05:04:16;97875.34;;;16.16;85.97
21760;BME280;11041;50.854;20.580;2023-07-28T05:06:43;97857.13;;;16.15;85.57
21760;BME280;11041;50.854;20.580;2023-07-28T05:09:09;97860.69;;;16.15;85.66
21760;BME280;11041;50.854;20.580;2023-07-28T05:11:35;97863.09;;;16.17;85.43
21760;BME280;11041;50.854;20.580;2023-07-28T05:14:02;97865.09;;;16.20;84.79
21760;BME280;11041;50.854;20.580;2023-07-28T05:16:29;97850.81;;;16.18;84.38
21760;BME280;11041;50.854;20.580;2023-07-28T05:18:55;97848.06;;;16.18;84.70
21760;BME280;11041;50.854;20.580;2023-07-28T05:21:22;97851.56;;;16.15;84.52
21760;BME280;11041;50.854;20.580;2023-07-28T05:23:49;97849.25;;;16.17;84.31
21760;BME280;11041;50.854;20.580;2023-07-28T05:26:15;97856.78;;;16.20;84.21
21760;BME280;11041;50.854;20.580;2023-07-28T05:28:42;97852.47;;;16.23;84.18
21760;BME280;11041;50.854;20.580;2023-07-28T05:31:08;97848.91;;;16.22;84.27
21760;BME280;11041;50.854;20.580;2023-07-28T05:33:38;97854.50;;;16.26;84.22
21760;BME280;11041;50.854;20.580;2023-07-28T05:36:05;97857.31;;;16.29;84.37
21760;BME280;11041;50.854;20.580;2023-07-28T05:38:32;97863.41;;;16.38;82.51
21760;BME280;11041;50.854;20.580;2023-07-28T05:40:59;97850.31;;;16.39;80.78
21760;BME280;11041;50.854;20.580;2023-07-28T05:43:31;97852.72;;;16.40;80.25
21760;BME280;11041;50.854;20.580;2023-07-28T05:45:58;97846.34;;;16.36;80.73
21760;BME280;11041;50.854;20.580;2023-07-28T05:48:25;97853.47;;;16.37;81.13
21760;BME280;11041;50.854;20.580;2023-07-28T05:50:52;97840.41;;;16.38;81.08
21760;BME280;11041;50.854;20.580;2023-07-28T05:53:21;97848.84;;;16.45;80.60
21760;BME280;11041;50.854;20.580;2023-07-28T05:55:47;97847.22;;;16.44;80.50
21760;BME280;11041;50.854;20.580;2023-07-28T05:58:20;97843.75;;;16.51;79.01
21760;BME280;11041;50.854;20.580;2023-07-28T06:00:47;97850.97;;;16.59;79.10
21760;BME280;11041;50.854;20.580;2023-07-28T06:03:16;97842.31;;;16.64;78.57
21760;BME280;11041;50.854;20.580;2023-07-28T06:05:42;97841.09;;;16.61;78.60
21760;BME280;11041;50.854;20.580;2023-07-28T06:08:09;97835.59;;;16.65;78.40
21760;BME280;11041;50.854;20.580;2023-07-28T06:10:37;97833.25;;;16.67;77.78
21760;BME280;11041;50.854;20.580;2023-07-28T06:13:04;97838.13;;;16.77;77.46
21760;BME280;11041;50.854;20.580;2023-07-28T06:15:31;97831.06;;;16.83;76.05
21760;BME280;11041;50.854;20.580;2023-07-28T06:17:57;97831.91;;;16.84;76.23
21760;BME280;11041;50.854;20.580;2023-07-28T06:20:24;97833.47;;;16.85;76.78
21760;BME280;11041;50.854;20.580;2023-07-28T06:22:51;97827.13;;;16.85;76.20
21760;BME280;11041;50.854;20.580;2023-07-28T06:25:17;97834.69;;;16.88;76.57
21760;BME280;11041;50.854;20.580;2023-07-28T06:27:44;97832.41;;;16.93;76.32
21760;BME280;11041;50.854;20.580;2023-07-28T06:30:11;97827.28;;;16.99;76.41
21760;BME280;11041;50.854;20.580;2023-07-28T06:32:38;97834.84;;;17.02;76.15
21760;BME280;11041;50.854;20.580;2023-07-28T06:35:05;97847.66;;;17.10;75.98
21760;BME280;11041;50.854;20.580;2023-07-28T06:37:35;97847.22;;;17.08;76.90
21760;BME280;11041;50.854;20.580;2023-07-28T06:40:06;97855.22;;;17.17;77.05
21760;BME280;11041;50.854;20.580;2023-07-28T06:42:36;97857.69;;;17.25;74.44
21760;BME280;11041;50.854;20.580;2023-07-28T06:45:03;97859.63;;;17.21;74.86
21760;BME280;11041;50.854;20.580;2023-07-28T06:47:30;97854.94;;;17.25;74.32
21760;BME280;11041;50.854;20.580;2023-07-28T06:49:57;97858.06;;;17.20;75.52
21760;BME280;11041;50.854;20.580;2023-07-28T06:52:23;97847.38;;;17.22;74.71
21760;BME280;11041;50.854;20.580;2023-07-28T06:54:50;97850.56;;;17.24;75.44
21760;BME280;11041;50.854;20.580;2023-07-28T06:57:17;97854.22;;;17.32;74.43
21760;BME280;11041;50.854;20.580;2023-07-28T06:59:43;97857.78;;;17.36;74.82
21760;BME280;11041;50.854;20.580;2023-07-28T07:02:10;97859.44;;;17.41;74.59
21760;BME280;11041;50.854;20.580;2023-07-28T07:04:36;97863.03;;;17.45;74.50
21760;BME280;11041;50.854;20.580;2023-07-28T07:07:03;97861.13;;;17.53;74.38
21760;BME280;11041;50.854;20.580;2023-07-28T07:09:30;97859.56;;;17.55;74.92
21760;BME280;11041;50.854;20.580;2023-07-28T07:11:57;97846.50;;;17.56;75.60
21760;BME280;11041;50.854;20.580;2023-07-28T07:14:23;97854.06;;;17.62;74.48
21760;BME280;11041;50.854;20.580;2023-07-28T07:16:50;97854.06;;;17.59;75.61
21760;BME280;11041;50.854;20.580;2023-07-28T07:19:16;97858.88;;;17.65;77.09
21760;BME280;11041;50.854;20.580;2023-07-28T07:21:43;97853.28;;;17.62;78.60
21760;BME280;11041;50.854;20.580;2023-07-28T07:24:11;97859.66;;;17.66;79.38
21760;BME280;11041;50.854;20.580;2023-07-28T07:26:40;97869.56;;;17.63;79.64
21760;BME280;11041;50.854;20.580;2023-07-28T07:29:08;97874.78;;;17.68;81.31
21760;BME280;11041;50.854;20.580;2023-07-28T07:31:36;97873.13;;;17.64;82.76
21760;BME280;11041;50.854;20.580;2023-07-28T07:34:02;97872.81;;;17.73;82.38
21760;BME280;11041;50.854;20.580;2023-07-28T07:36:31;97875.59;;;17.73;83.72
21760;BME280;11041;50.854;20.580;2023-07-28T07:38:58;97867.66;;;17.75;83.68
21760;BME280;11041;50.854;20.580;2023-07-28T07:41:26;97890.38;;;17.80;84.42
21760;BME280;11041;50.854;20.580;2023-07-28T07:43:54;97878.38;;;17.73;85.65
21760;BME280;11041;50.854;20.580;2023-07-28T07:46:21;97893.38;;;17.64;86.70
21760;BME280;11041;50.854;20.580;2023-07-28T07:48:47;97896.16;;;17.64;86.55
21760;BME280;11041;50.854;20.580;2023-07-28T07:51:15;97890.94;;;17.59;85.58
21760;BME280;11041;50.854;20.580;2023-07-28T07:53:42;97888.09;;;17.49;85.83
21760;BME280;11041;50.854;20.580;2023-07-28T07:56:09;97890.03;;;17.44;86.44
21760;BME280;11041;50.854;20.580;2023-07-28T07:58:37;97882.47;;;17.41;85.56
21760;BME280;11041;50.854;20.580;2023-07-28T08:01:04;97879.19;;;17.32;85.95
21760;BME280;11041;50.854;20.580;2023-07-28T08:03:30;97890.22;;;17.25;87.34
21760;BME280;11041;50.854;20.580;2023-07-28T08:05:58;97887.81;;;17.23;86.37
21760;BME280;11041;50.854;20.580;2023-07-28T08:08:25;97886.19;;;17.19;87.77
21760;BME280;11041;50.854;20.580;2023-07-28T08:11:18;97894.16;;;17.24;87.36
21760;BME280;11041;50.854;20.580;2023-07-28T08:14:09;97893.38;;;17.23;89.36
21760;BME280;11041;50.854;20.580;2023-07-28T08:17:01;97877.97;;;17.30;89.24
21760;BME280;11041;50.854;20.580;2023-07-28T08:19:51;97891.13;;;17.36;89.78
21760;BME280;11041;50.854;20.580;2023-07-28T08:36:20;97879.75;;;17.49;92.58
21760;BME280;11041;50.854;20.580;2023-07-28T08:38:46;97881.44;;;17.60;91.39
21760;BME280;11041;50.854;20.580;2023-07-28T08:41:13;97877.03;;;17.56;90.67
21760;BME280;11041;50.854;20.580;2023-07-28T08:43:41;97885.78;;;17.58;91.46
21760;BME280;11041;50.854;20.580;2023-07-28T08:46:08;97876.91;;;17.41;92.85
21760;BME280;11041;50.854;20.580;2023-07-28T08:48:35;97878.88;;;17.41;93.57
21760;BME280;11041;50.854;20.580;2023-07-28T08:51:03;97887.19;;;17.37;94.13
21760;BME280;11041;50.854;20.580;2023-07-28T08:53:31;97881.63;;;17.37;94.69
21760;BME280;11041;50.854;20.580;2023-07-28T08:55:57;97889.47;;;17.32;95.84
21760;BME280;11041;50.854;20.580;2023-07-28T08:58:24;97890.75;;;17.38;95.70
21760;BME280;11041;50.854;20.580;2023-07-28T09:00:52;97894.78;;;17.44;95.16
21760;BME280;11041;50.854;20.580;2023-07-28T09:03:19;97878.06;;;17.37;96.50
21760;BME280;11041;50.854;20.580;2023-07-28T09:05:47;97888.03;;;17.45;97.74
21760;BME280;11041;50.854;20.580;2023-07-28T09:08:17;97899.28;;;17.56;97.99
21760;BME280;11041;50.854;20.580;2023-07-28T09:10:48;97884.13;;;17.53;97.86
21760;BME280;11041;50.854;20.580;2023-07-28T09:13:17;97895.72;;;17.62;97.49
21760;BME280;11041;50.854;20.580;2023-07-28T09:15:45;97890.88;;;17.52;97.88
21760;BME280;11041;50.854;20.580;2023-07-28T09:18:15;97884.13;;;17.50;96.75
21760;BME280;11041;50.854;20.580;2023-07-28T09:20:43;97897.59;;;17.48;96.66
21760;BME280;11041;50.854;20.580;2023-07-28T09:23:13;97898.28;;;17.37;97.80
21760;BME280;11041;50.854;20.580;2023-07-28T09:25:41;97893.81;;;17.29;99.03
21760;BME280;11041;50.854;20.580;2023-07-28T09:28:08;97893.09;;;17.36;98.85
21760;BME280;11041;50.854;20.580;2023-07-28T09:30:49;97894.75;;;17.40;99.61
21760;BME280;11041;50.854;20.580;2023-07-28T09:33:36;97894.31;;;17.38;98.71
21760;BME280;11041;50.854;20.580;2023-07-28T09:36:12;97890.38;;;17.39;99.77
21760;BME280;11041;50.854;20.580;2023-07-28T09:38:41;97883.69;;;17.44;100.00
21760;BME280;11041;50.854;20.580;2023-07-28T09:41:10;97881.00;;;17.55;100.00
21760;BME280;11041;50.854;20.580;2023-07-28T09:43:39;97870.00;;;17.65;100.00
21760;BME280;11041;50.854;20.580;2023-07-28T09:46:09;97874.78;;;17.68;100.00
21760;BME280;11041;50.854;20.580;2023-07-28T09:48:39;97876.03;;;17.78;100.00
21760;BME280;11041;50.854;20.580;2023-07-28T09:51:16;97869.78;;;17.85;98.71
21760;BME280;11041;50.854;20.580;2023-07-28T09:53:55;97873.72;;;17.84;98.85
21760;BME280;11041;50.854;20.580;2023-07-28T09:56:27;97884.41;;;17.82;100.00
21760;BME280;11041;50.854;20.580;2023-07-28T09:58:57;97882.47;;;17.82;100.00
21760;BME280;11041;50.854;20.580;2023-07-28T10:01:25;97879.59;;;17.79;99.70
21760;BME280;11041;50.854;20.580;2023-07-28T10:03:52;97868.84;;;17.74;100.00
21760;BME280;11041;50.854;20.580;2023-07-28T10:06:19;97871.22;;;17.72;100.00
21760;BME280;11041;50.854;20.580;2023-07-28T10:08:49;97872.41;;;17.71;100.00
21760;BME280;11041;50.854;20.580;2023-07-28T10:11:17;97872.41;;;17.74;100.00
21760;BME280;11041;50.854;20.580;2023-07-28T10:13:45;97871.19;;;17.68;99.79
21760;BME280;11041;50.854;20.580;2023-07-28T10:16:13;97867.97;;;17.62;100.00
21760;BME280;11041;50.854;20.580;2023-07-28T10:18:51;97884.25;;;17.67;100.00
21760;BME280;11041;50.854;20.580;2023-07-28T10:21:19;97878.28;;;17.62;100.00
21760;BME280;11041;50.854;20.580;2023-07-28T10:23:55;97881.03;;;17.58;100.00
21760;BME280;11041;50.854;20.580;2023-07-28T10:26:39;97875.44;;;17.55;100.00
21760;BME280;11041;50.854;20.580;2023-07-28T10:29:14;97882.25;;;17.61;100.00
21760;BME280;11041;50.854;20.580;2023-07-28T10:31:54;97877.03;;;17.56;100.00
21760;BME280;11041;50.854;20.580;2023-07-28T10:34:24;97873.94;;;17.64;100.00
21760;BME280;11041;50.854;20.580;2023-07-28T10:37:00;97878.34;;;17.69;100.00
21760;BME280;11041;50.854;20.580;2023-07-28T10:39:27;97874.78;;;17.68;100.00
21760;BME280;11041;50.854;20.580;2023-07-28T10:42:05;97884.31;;;17.71;100.00
21760;BME280;11041;50.854;20.580;2023-07-28T10:44:33;97893.09;;;17.77;100.00
21760;BME280;11041;50.854;20.580;2023-07-28T10:47:01;97885.53;;;17.74;100.00
21760;BME280;11041;50.854;20.580;2023-07-28T10:49:28;97880.69;;;17.67;100.00
21760;BME280;11041;50.854;20.580;2023-07-28T10:51:55;97874.66;;;17.58;100.00
21760;BME280;11041;50.854;20.580;2023-07-28T10:54:22;97871.03;;;17.50;100.00
21760;BME280;11041;50.854;20.580;2023-07-28T10:56:49;97883.34;;;17.53;100.00
21760;BME280;11041;50.854;20.580;2023-07-28T10:59:15;97884.13;;;17.50;100.00
21760;BME280;11041;50.854;20.580;2023-07-28T11:01:43;97890.81;;;17.45;100.00
21760;BME280;11041;50.854;20.580;2023-07-28T11:04:19;97892.34;;;17.39;100.00
21760;BME280;11041;50.854;20.580;2023-07-28T11:06:50;97892.38;;;17.42;100.00
21760;BME280;11041;50.854;20.580;2023-07-28T11:09:22;97890.44;;;17.46;100.00
21760;BME280;11041;50.854;20.580;2023-07-28T11:12:15;97887.66;;;17.46;100.00
21760;BME280;11041;50.854;20.580;2023-07-28T11:15:09;97888.41;;;17.43;100.00
21760;BME280;11041;50.854;20.580;2023-07-28T11:18:04;97903.13;;;17.48;100.00
21760;BME280;11041;50.854;20.580;2023-07-28T11:20:56;97895.22;;;17.50;100.00
21760;BME280;11041;50.854;20.580;2023-07-28T11:26:29;97902.34;;;17.47;100.00
21760;BME280;11041;50.854;20.580;2023-07-28T11:28:56;97901.56;;;17.50;100.00
21760;BME280;11041;50.854;20.580;2023-07-28T11:31:25;97897.69;;;17.58;100.00
21760;BME280;11041;50.854;20.580;2023-07-28T11:33:52;97909.75;;;17.73;100.00
21760;BME280;11041;50.854;20.580;2023-07-28T11:36:27;97891.97;;;17.81;100.00
21760;BME280;11041;50.854;20.580;2023-07-28T11:38:58;97889.66;;;17.94;100.00
21760;BME280;11041;50.854;20.580;2023-07-28T11:41:26;97894.94;;;18.06;100.00
21760;BME280;11041;50.854;20.580;2023-07-28T11:43:54;97892.56;;;18.08;100.00
21760;BME280;11041;50.854;20.580;2023-07-28T11:46:38;97906.88;;;18.10;100.00
21760;BME280;11041;50.854;20.580;2023-07-28T11:49:15;97896.53;;;18.07;100.00
21760;BME280;11041;50.854;20.580;2023-07-28T11:51:53;97904.09;;;18.07;100.00
21760;BME280;11041;50.854;20.580;2023-07-28T11:54:25;97898.47;;;18.00;100.00
21760;BME280;11041;50.854;20.580;2023-07-28T11:56:56;97897.63;;;17.96;100.00
21760;BME280;11041;50.854;20.580;2023-07-28T11:59:23;97888.88;;;17.90;100.00
21760;BME280;11041;50.854;20.580;2023-07-28T12:02:00;97890.44;;;17.91;100.00
21760;BME280;11041;50.854;20.580;2023-07-28T12:04:34;97886.91;;;17.94;100.00
21760;BME280;11041;50.854;20.580;2023-07-28T12:12:28;97896.97;;;18.13;100.00
21760;BME280;11041;50.854;20.580;2023-07-28T12:14:58;97895.81;;;18.18;100.00
21760;BME280;11041;50.854;20.580;2023-07-28T12:17:31;97891.09;;;18.22;100.00
21760;BME280;11041;50.854;20.580;2023-07-28T12:20:05;97882.47;;;18.41;100.00
21760;BME280;11041;50.854;20.580;2023-07-28T12:22:45;97882.59;;;18.70;100.00
21760;BME280;11041;50.854;20.580;2023-07-28T12:25:12;97881.13;;;18.90;100.00
21760;BME280;11041;50.854;20.580;2023-07-28T12:27:38;97894.00;;;19.34;100.00
21760;BME280;11041;50.854;20.580;2023-07-28T12:30:06;97882.13;;;19.63;100.00
21760;BME280;11041;50.854;20.580;2023-07-28T12:32:35;97886.50;;;19.96;100.00
21760;BME280;11041;50.854;20.580;2023-07-28T12:35:01;97877.72;;;20.22;94.65
21760;BME280;11041;50.854;20.580;2023-07-28T12:37:28;97886.88;;;20.34;92.55
21760;BME280;11041;50.854;20.580;2023-07-28T12:39:54;97873.72;;;20.34;91.46
21760;BME280;11041;50.854;20.580;2023-07-28T12:42:20;97886.88;;;20.30;91.98
21760;BME280;11041;50.854;20.580;2023-07-28T12:44:47;97885.69;;;20.28;91.23
21760;BME280;11041;50.854;20.580;2023-07-28T12:47:13;97886.09;;;20.19;92.39
21760;BME280;11041;50.854;20.580;2023-07-28T12:49:40;97886.50;;;20.21;92.60
21760;BME280;11041;50.854;20.580;2023-07-28T12:52:06;97878.91;;;20.36;92.84
21760;BME280;11041;50.854;20.580;2023-07-28T12:54:34;97884.44;;;20.47;91.12
21760;BME280;11041;50.854;20.580;2023-07-28T12:57:01;97886.03;;;20.51;91.16
21760;BME280;11041;50.854;20.580;2023-07-28T12:59:28;97886.84;;;20.55;90.00
21760;BME280;11041;50.854;20.580;2023-07-28T13:01:55;97866.91;;;20.46;90.57
21760;BME280;11041;50.854;20.580;2023-07-28T13:04:22;97882.44;;;20.54;89.00
21760;BME280;11041;50.854;20.580;2023-07-28T13:06:48;97882.03;;;20.63;88.25
21760;BME280;11041;50.854;20.580;2023-07-28T13:09:15;97887.19;;;20.68;88.70
21760;BME280;11041;50.854;20.580;2023-07-28T13:11:41;97884.78;;;20.77;88.30
21760;BME280;11041;50.854;20.580;2023-07-28T13:14:07;97890.78;;;20.76;87.16
21760;BME280;11041;50.854;20.580;2023-07-28T13:16:33;97897.13;;;20.80;88.03
21760;BME280;11041;50.854;20.580;2023-07-28T13:19:00;97891.19;;;20.74;88.81
21760;BME280;11041;50.854;20.580;2023-07-28T13:21:26;97901.94;;;20.79;87.68
21760;BME280;11041;50.854;20.580;2023-07-28T13:23:52;97899.19;;;20.65;87.65